createdAt,value
2019-04-01T00:00:10.185Z,91.71
2019-04-01T00:01:10.209Z,91.49
2019-04-01T00:02:10.194Z,91.71
2019-04-01T00:03:10.151Z,91.49
2019-04-01T00:04:10.140Z,92.86
2019-04-01T00:05:10.134Z,93.18
2019-04-01T00:06:10.121Z,92.65
2019-04-01T00:07:10.132Z,92.76
2019-04-01T00:08:10.101Z,92.86
2019-04-01T00:09:10.149Z,92.38
2019-04-01T00:10:10.079Z,92.58
2019-04-01T00:11:10.070Z,93.28
2019-04-01T00:12:10.077Z,93.07
2019-04-01T00:13:10.047Z,93.22
2019-04-01T00:14:10.044Z,93.22
2019-04-01T00:15:10.040Z,93.43
2019-04-01T00:16:10.059Z,93.74
2019-04-01T00:17:10.019Z,93.74
2019-04-01T00:18:10.000Z,93.11
2019-04-01T00:19:09.983Z,93.43
2019-04-01T00:20:09.977Z,93.22
2019-04-01T00:21:09.965Z,93.11
2019-04-01T00:22:09.976Z,93.11
2019-04-01T00:23:10.204Z,93.26
2019-04-01T00:24:09.970Z,92.38
2019-04-01T00:25:09.925Z,93.05
2019-04-01T00:26:09.919Z,93.05
2019-04-01T00:27:09.915Z,93.26
2019-04-01T00:28:09.890Z,94.31
2019-04-01T00:29:09.885Z,93.68
2019-04-01T00:30:09.868Z,94.17
2019-04-01T00:31:09.888Z,95.36
2019-04-01T00:32:09.861Z,94.37
2019-04-01T00:33:09.834Z,94.17
2019-04-01T00:34:09.825Z,93.99
2019-04-01T00:35:09.819Z,94.31
2019-04-01T00:36:09.811Z,94.84
2019-04-01T00:37:09.817Z,94.73
2019-04-01T00:38:09.787Z,94.21
2019-04-01T00:39:09.784Z,94.73
2019-04-01T00:40:09.764Z,94.73
2019-04-01T00:41:09.762Z,93.89
2019-04-01T00:42:09.755Z,94.21
2019-04-01T00:43:09.762Z,94.10
2019-04-01T00:44:09.724Z,94.31
2019-04-01T00:45:09.712Z,93.99
2019-04-01T00:46:09.700Z,94.25
2019-04-01T00:47:09.710Z,94.14
2019-04-01T00:48:09.680Z,94.35
2019-04-01T00:49:09.700Z,94.25
2019-04-01T00:50:09.660Z,93.93
2019-04-01T00:51:09.642Z,93.83
2019-04-01T00:52:09.632Z,93.93
2019-04-01T00:53:09.630Z,93.98
2019-04-01T00:54:09.610Z,94.25
2019-04-01T00:55:09.644Z,94.46
2019-04-01T00:56:09.600Z,96.56
2019-04-01T00:57:09.589Z,97.09
2019-04-01T00:58:09.582Z,96.98
2019-04-01T00:59:09.611Z,97.30
2019-04-01T01:00:09.552Z,96.98
2019-04-01T01:01:09.539Z,96.14
2019-04-01T01:02:09.532Z,95.83
2019-04-01T01:03:09.540Z,95.97
2019-04-01T01:04:09.507Z,96.39
2019-04-01T01:05:09.522Z,96.03
2019-04-01T01:06:09.497Z,96.88
2019-04-01T01:07:09.474Z,97.09
2019-04-01T01:08:09.482Z,97.30
2019-04-01T01:09:09.464Z,96.98
2019-04-01T01:10:09.442Z,96.98
2019-04-01T01:11:09.429Z,97.03
2019-04-01T01:12:09.420Z,96.56
2019-04-01T01:13:09.425Z,95.93
2019-04-01T01:14:09.407Z,95.97
2019-04-01T01:15:09.395Z,96.08
2019-04-01T01:16:09.430Z,95.87
2019-04-01T01:17:09.372Z,96.19
2019-04-01T01:18:09.375Z,96.19
2019-04-01T01:19:09.348Z,96.92
2019-04-01T01:20:09.344Z,98.14
2019-04-01T01:21:09.330Z,97.55
2019-04-01T01:22:09.331Z,97.24
2019-04-01T01:23:09.334Z,97.13
2019-04-01T01:24:09.300Z,96.92
2019-04-01T01:25:09.290Z,96.92
2019-04-01T01:26:09.281Z,96.81
2019-04-01T01:27:09.263Z,96.81
2019-04-01T01:28:09.255Z,96.71
2019-04-01T01:29:09.274Z,97.24
2019-04-01T01:30:09.226Z,97.24
2019-04-01T01:31:09.221Z,97.28
2019-04-01T01:32:09.213Z,96.81
2019-04-01T01:33:09.195Z,97.34
2019-04-01T01:34:09.205Z,97.45
2019-04-01T01:35:09.243Z,97.17
2019-04-01T01:36:09.173Z,97.60
2019-04-01T01:37:09.158Z,97.39
2019-04-01T01:38:09.151Z,96.86
2019-04-01T01:39:09.151Z,96.55
2019-04-01T01:40:09.121Z,96.59
2019-04-01T01:41:09.137Z,96.23
2019-04-01T01:42:09.103Z,95.81
2019-04-01T01:43:09.098Z,96.23
2019-04-01T01:44:09.102Z,96.37
2019-04-01T01:45:09.075Z,96.17
2019-04-01T01:46:09.061Z,96.37
2019-04-01T01:47:09.055Z,97.01
2019-04-01T01:48:09.045Z,98.91
2019-04-01T01:49:09.045Z,98.75
2019-04-01T01:50:09.043Z,98.91
2019-04-01T01:51:09.011Z,98.33
2019-04-01T01:52:09.001Z,98.44
2019-04-01T01:53:08.990Z,98.07
2019-04-01T01:54:08.989Z,98.49
2019-04-01T01:55:08.974Z,97.96
2019-04-01T01:56:09.006Z,98.17
2019-04-01T01:57:08.953Z,97.85
2019-04-01T01:58:08.934Z,97.96
2019-04-01T01:59:08.950Z,98.59
2019-04-01T02:00:08.919Z,98.27
2019-04-01T02:01:08.908Z,98.27
2019-04-01T02:02:08.900Z,98.69
2019-04-01T02:03:08.930Z,98.69
2019-04-01T02:04:08.871Z,98.69
2019-04-01T02:05:08.889Z,98.80
2019-04-01T02:06:08.848Z,98.69
2019-04-01T02:07:08.843Z,98.17
2019-04-01T02:08:08.828Z,97.85
2019-04-01T02:09:08.837Z,97.85
2019-04-01T02:10:08.826Z,97.75
2019-04-01T02:11:08.804Z,97.64
2019-04-01T02:12:08.790Z,97.75
2019-04-01T02:13:08.786Z,98.17
2019-04-01T02:14:08.770Z,98.59
2019-04-01T02:15:08.778Z,99.11
2019-04-01T02:16:08.750Z,98.69
2019-04-01T02:17:08.736Z,98.80
2019-04-01T02:18:08.771Z,99.11
2019-04-01T02:19:08.724Z,98.27
2019-04-01T02:20:08.717Z,98.27
2019-04-01T02:21:08.692Z,98.38
2019-04-01T02:22:08.723Z,98.91
2019-04-01T02:23:08.670Z,98.74
2019-04-01T02:24:08.673Z,98.80
2019-04-01T02:25:08.676Z,99.05
2019-04-01T02:26:08.644Z,99.11
2019-04-01T02:27:08.627Z,98.80
2019-04-01T02:28:08.642Z,97.85
2019-04-01T02:29:08.609Z,97.69
2019-04-01T02:30:08.621Z,98.21
2019-04-01T02:31:08.590Z,98.53
2019-04-01T02:32:08.666Z,98.21
2019-04-01T02:33:08.636Z,98.63
2019-04-01T02:34:08.554Z,98.63
2019-04-01T02:35:08.562Z,98.21
2019-04-01T02:36:08.539Z,98.25
2019-04-01T02:37:08.524Z,98.11
2019-04-01T02:38:08.512Z,98.95
2019-04-01T02:39:08.514Z,99.79
2019-04-01T02:40:08.516Z,99.64
2019-04-01T02:41:08.512Z,99.16
2019-04-01T02:42:08.474Z,99.27
2019-04-01T02:43:08.464Z,99.16
2019-04-01T02:44:08.460Z,98.89
2019-04-01T02:45:08.462Z,99.21
2019-04-01T02:46:08.435Z,99.05
2019-04-01T02:47:08.416Z,99.37
2019-04-01T02:48:08.416Z,99.58
2019-04-01T02:49:08.448Z,99.48
2019-04-01T02:50:08.431Z,99.37
2019-04-01T02:51:08.374Z,99.52
2019-04-01T02:52:08.374Z,98.85
2019-04-01T02:53:08.369Z,98.99
2019-04-01T02:54:08.350Z,98.43
2019-04-01T02:55:08.346Z,98.85
2019-04-01T02:56:08.390Z,98.15
2019-04-01T02:57:08.323Z,98.25
2019-04-01T02:58:08.305Z,98.25
2019-04-01T02:59:08.298Z,98.15
2019-04-01T03:00:08.297Z,98.36
2019-04-01T03:01:08.289Z,99.31
2019-04-01T03:02:08.268Z,99.73
2019-04-01T03:03:08.347Z,99.63
2019-04-01T03:04:08.248Z,99.41
2019-04-01T03:05:08.248Z,98.68
2019-04-01T03:06:08.244Z,98.79
2019-04-01T03:07:08.217Z,98.68
2019-04-01T03:08:08.201Z,98.79
2019-04-01T03:09:08.204Z,98.89
2019-04-01T03:10:08.184Z,98.83
2019-04-01T03:11:10.684Z,99.35
2019-04-01T03:12:08.168Z,98.83
2019-04-01T03:13:08.165Z,99.04
2019-04-01T03:14:08.148Z,98.93
2019-04-01T03:15:08.134Z,99.35
2019-04-01T03:16:08.142Z,99.57
2019-04-01T03:17:08.127Z,99.73
2019-04-01T03:18:08.102Z,99.78
2019-04-01T03:19:08.083Z,99.57
2019-04-01T03:20:08.084Z,99.67
2019-04-01T03:21:08.146Z,99.35
2019-04-01T03:22:08.059Z,99.78
2019-04-01T03:23:08.043Z,99.67
2019-04-01T03:24:08.042Z,99.46
2019-04-01T03:25:08.034Z,99.46
2019-04-01T03:26:08.039Z,99.67
2019-04-01T03:27:07.999Z,99.99
2019-04-01T03:28:07.993Z,99.99
2019-04-01T03:29:07.987Z,99.99
2019-04-01T03:30:08.002Z,99.99
2019-04-01T03:31:07.985Z,99.99
2019-04-01T03:32:07.953Z,99.99
2019-04-01T03:33:08.037Z,99.57
2019-04-01T03:34:07.929Z,99.57
2019-04-01T03:35:07.941Z,99.67
2019-04-01T03:36:07.951Z,99.99
2019-04-01T03:37:07.901Z,99.99
2019-04-01T03:38:07.896Z,99.99
2019-04-01T03:39:07.883Z,99.99
2019-04-01T03:40:07.912Z,99.99
2019-04-01T03:41:07.865Z,99.99
2019-04-01T03:42:07.867Z,99.99
2019-04-01T03:43:07.842Z,99.67
2019-04-01T03:44:07.880Z,99.67
2019-04-01T03:45:07.820Z,99.25
2019-04-01T03:46:07.816Z,99.35
2019-04-01T03:47:07.814Z,99.57
2019-04-01T03:48:07.789Z,99.35
2019-04-01T03:49:07.772Z,99.78
2019-04-01T03:50:07.775Z,99.99
2019-04-01T03:51:07.748Z,99.99
2019-04-01T03:52:10.283Z,99.99
2019-04-01T03:53:07.734Z,99.99
2019-04-01T03:54:07.728Z,99.72
2019-04-01T03:55:07.716Z,99.99
2019-04-01T03:56:07.707Z,99.99
2019-04-01T03:57:07.703Z,99.99
2019-04-01T03:58:07.719Z,99.99
2019-04-01T03:59:07.698Z,99.99
2019-04-01T04:00:07.655Z,99.99
2019-04-01T04:01:07.658Z,99.99
2019-04-01T04:02:07.699Z,99.99
2019-04-01T04:03:07.627Z,99.99
2019-04-01T04:04:07.619Z,99.99
2019-04-01T04:05:07.615Z,99.99
2019-04-01T04:06:07.614Z,99.99
2019-04-01T04:07:07.618Z,99.99
2019-04-01T04:08:07.576Z,99.99
2019-04-01T04:09:07.569Z,99.93
2019-04-01T04:10:07.566Z,99.82
2019-04-01T04:11:07.549Z,99.30
2019-04-01T04:12:07.545Z,99.99
2019-04-01T04:13:07.534Z,99.76
2019-04-01T04:14:07.583Z,99.82
2019-04-01T04:15:07.513Z,99.99
2019-04-01T04:16:07.498Z,99.99
2019-04-01T04:17:07.510Z,99.99
2019-04-01T04:18:07.473Z,99.99
2019-04-01T04:19:07.462Z,99.99
2019-04-01T04:20:07.492Z,99.99
2019-04-01T04:21:07.446Z,99.99
2019-04-01T04:22:07.451Z,99.99
2019-04-01T04:23:07.421Z,99.99
2019-04-01T04:24:07.427Z,99.99
2019-04-01T04:25:07.455Z,99.99
2019-04-01T04:26:07.392Z,99.99
2019-04-01T04:27:10.940Z,99.99
2019-04-01T04:28:07.365Z,99.99
2019-04-01T04:29:07.352Z,99.99
2019-04-01T04:30:07.373Z,99.99
2019-04-01T04:31:07.348Z,99.99
2019-04-01T04:32:07.338Z,99.99
2019-04-01T04:33:07.314Z,99.99
2019-04-01T04:34:07.311Z,99.99
2019-04-01T04:35:07.293Z,99.99
2019-04-01T04:36:07.291Z,99.99
2019-04-01T04:37:07.309Z,99.99
2019-04-01T04:38:07.258Z,99.99
2019-04-01T04:39:07.350Z,99.99
2019-04-01T04:40:07.244Z,99.99
2019-04-01T04:41:07.228Z,99.99
2019-04-01T04:42:07.216Z,99.99
2019-04-01T04:43:07.227Z,99.99
2019-04-01T04:44:07.213Z,99.99
2019-04-01T04:45:07.193Z,99.99
2019-04-01T04:46:07.244Z,99.99
2019-04-01T04:47:07.173Z,99.99
2019-04-01T04:48:07.184Z,99.99
2019-04-01T04:49:07.152Z,99.99
2019-04-01T04:50:07.142Z,99.99
2019-04-01T04:51:07.130Z,99.99
2019-04-01T04:52:07.135Z,99.99
2019-04-01T04:53:07.130Z,99.99
2019-04-01T04:54:07.101Z,99.99
2019-04-01T04:55:07.090Z,99.99
2019-04-01T04:56:07.070Z,99.99
2019-04-01T04:57:07.067Z,99.99
2019-04-01T04:58:07.073Z,99.99
2019-04-01T04:59:07.040Z,99.99
2019-04-01T05:00:07.092Z,99.99
2019-04-01T05:01:07.024Z,99.99
2019-04-01T05:02:07.014Z,99.99
2019-04-01T05:03:07.018Z,99.99
2019-04-01T05:04:07.059Z,99.99
2019-04-01T05:05:06.984Z,99.99
2019-04-01T05:06:06.968Z,99.99
2019-04-01T05:07:06.959Z,99.99
2019-04-01T05:08:06.975Z,99.99
2019-04-01T05:09:06.954Z,99.99
2019-04-01T05:10:06.924Z,99.99
2019-04-01T05:11:06.916Z,99.99
2019-04-01T05:12:06.976Z,99.99
2019-04-01T05:13:06.930Z,99.99
2019-04-01T05:14:06.884Z,99.99
2019-04-01T05:15:06.881Z,99.99
2019-04-01T05:16:06.939Z,99.99
2019-04-01T05:17:06.874Z,99.99
2019-04-01T05:18:06.864Z,99.99
2019-04-01T05:19:06.835Z,99.99
2019-04-01T05:20:06.876Z,99.99
2019-04-01T05:21:06.834Z,99.99
2019-04-01T05:22:06.809Z,99.99
2019-04-01T05:23:06.817Z,99.99
2019-04-01T05:24:06.792Z,99.99
2019-04-01T05:25:06.776Z,99.99
2019-04-01T05:26:06.775Z,99.99
2019-04-01T05:27:06.749Z,99.99
2019-04-01T05:28:06.759Z,99.99
2019-04-01T05:29:06.741Z,99.99
2019-04-01T05:30:06.728Z,99.99
2019-04-01T05:31:06.708Z,99.99
2019-04-01T05:32:06.698Z,99.99
2019-04-01T05:33:06.768Z,99.99
2019-04-01T05:34:06.683Z,99.99
2019-04-01T05:35:06.667Z,99.99
2019-04-01T05:36:06.666Z,99.75
2019-04-01T05:37:08.978Z,99.99
2019-04-01T05:38:06.723Z,99.99
2019-04-01T05:39:06.635Z,99.99
2019-04-01T05:40:06.619Z,99.99
2019-04-01T05:41:06.640Z,99.99
2019-04-01T05:42:06.593Z,99.99
2019-04-01T05:43:06.605Z,99.99
2019-04-01T05:44:06.605Z,99.99
2019-04-01T05:45:06.561Z,99.99
2019-04-01T05:46:06.557Z,99.70
2019-04-01T05:47:06.553Z,99.99
2019-04-01T05:48:06.525Z,99.99
2019-04-01T05:49:06.540Z,99.99
2019-04-01T05:50:06.510Z,99.98
2019-04-01T05:51:06.503Z,99.99
2019-04-01T05:52:06.481Z,99.99
2019-04-01T05:53:06.472Z,99.93
2019-04-01T05:54:06.479Z,99.93
2019-04-01T05:55:08.883Z,99.99
2019-04-01T05:56:06.448Z,99.99
2019-04-01T05:57:06.455Z,99.78
2019-04-01T05:58:06.430Z,99.99
2019-04-01T05:59:06.428Z,99.99
2019-04-01T06:00:06.485Z,99.88
2019-04-01T06:01:06.393Z,99.99
2019-04-01T06:02:06.388Z,99.52
2019-04-01T06:03:06.364Z,99.99
2019-04-01T06:04:06.390Z,99.99
2019-04-01T06:05:06.399Z,99.99
2019-04-01T06:06:06.338Z,99.99
2019-04-01T06:07:06.328Z,99.99
2019-04-01T06:08:06.318Z,99.99
2019-04-01T06:09:06.356Z,99.99
2019-04-01T06:10:06.298Z,99.99
2019-04-01T06:11:06.291Z,99.99
2019-04-01T06:12:06.322Z,99.99
2019-04-01T06:13:06.271Z,99.99
2019-04-01T06:14:06.272Z,99.99
2019-04-01T06:15:06.246Z,99.03
2019-04-01T06:16:06.246Z,97.30
2019-04-01T06:17:06.222Z,97.30
2019-04-01T06:18:06.222Z,97.20
2019-04-01T06:19:06.275Z,97.47
2019-04-01T06:20:06.186Z,98.21
2019-04-01T06:21:06.196Z,98.21
2019-04-01T06:22:06.168Z,98.26
2019-04-01T06:23:06.156Z,98.16
2019-04-01T06:24:06.162Z,98.05
2019-04-01T06:25:06.141Z,98.22
2019-04-01T06:26:06.134Z,97.49
2019-04-01T06:27:06.123Z,97.38
2019-04-01T06:28:06.101Z,96.81
2019-04-01T06:29:06.116Z,96.71
2019-04-01T06:30:06.082Z,96.71
2019-04-01T06:31:06.078Z,94.78
2019-04-01T06:32:06.077Z,93.59
2019-04-01T06:33:06.131Z,94.80
2019-04-01T06:34:06.038Z,92.25
2019-04-01T06:35:06.078Z,91.64
2019-04-01T06:36:06.020Z,89.32
2019-04-01T06:37:06.006Z,89.00
2019-04-01T06:38:06.000Z,85.41
2019-04-01T06:39:05.991Z,79.75
2019-04-01T06:40:06.042Z,80.12
2019-04-01T06:41:05.978Z,78.77
2019-04-01T06:42:07.312Z,72.99
2019-04-01T06:43:05.943Z,70.62
2019-04-01T06:44:05.965Z,70.83
2019-04-01T06:45:05.939Z,67.23
2019-04-01T06:46:05.914Z,63.37
2019-04-01T06:47:05.905Z,61.36
2019-04-01T06:48:05.891Z,61.00
2019-04-01T06:49:05.924Z,59.00
2019-04-01T06:50:05.903Z,56.71
2019-04-01T06:51:05.857Z,56.84
2019-04-01T06:52:05.847Z,54.13
2019-04-01T06:53:05.842Z,55.10
2019-04-01T06:54:05.837Z,53.52
2019-04-01T06:55:05.834Z,49.73
2019-04-01T06:56:05.834Z,48.05
2019-04-01T06:57:05.791Z,47.52
2019-04-01T06:58:05.995Z,45.87
2019-04-01T06:59:05.777Z,45.24
2019-04-01T07:00:05.788Z,45.54
2019-04-01T07:01:05.769Z,43.20
2019-04-01T07:02:05.796Z,43.08
2019-04-01T07:03:05.731Z,42.25
2019-04-01T07:04:05.721Z,42.35
2019-04-01T07:05:05.719Z,41.52
2019-04-01T07:06:05.693Z,41.72
2019-04-01T07:07:18.370Z,42.74
2019-04-01T07:08:06.681Z,41.21
2019-04-01T07:09:05.677Z,41.80
2019-04-01T07:10:05.687Z,41.66
2019-04-01T07:11:05.654Z,39.51
2019-04-01T07:12:05.629Z,39.37
2019-04-01T07:13:05.623Z,39.34
2019-04-01T07:14:05.607Z,39.22
2019-04-01T07:15:05.621Z,37.59
2019-04-01T07:16:15.350Z,37.68
2019-04-01T07:17:06.628Z,38.35
2019-04-01T07:18:05.569Z,37.63
2019-04-01T07:19:05.569Z,35.90
2019-04-01T07:20:08.545Z,34.99
2019-04-01T07:21:05.546Z,34.47
2019-04-01T07:22:05.522Z,35.80
2019-04-01T07:23:05.514Z,35.39
2019-04-01T07:24:05.508Z,34.99
2019-04-01T07:25:05.497Z,34.59
2019-04-01T07:26:05.488Z,35.28
2019-04-01T07:27:08.040Z,34.94
2019-04-01T07:28:05.526Z,34.83
2019-04-01T07:29:05.451Z,33.82
2019-04-01T07:30:05.514Z,33.33
2019-04-01T07:31:05.440Z,32.96
2019-04-01T07:32:05.418Z,34.56
2019-04-01T07:33:05.419Z,33.73
2019-04-01T07:34:05.386Z,33.92
2019-04-01T07:35:05.396Z,32.61
2019-04-01T07:36:05.390Z,33.40
2019-04-01T07:37:05.354Z,33.08
2019-04-01T07:38:05.372Z,31.79
2019-04-01T07:39:05.336Z,32.59
2019-04-01T07:40:05.339Z,32.68
2019-04-01T07:41:05.362Z,31.30
2019-04-01T07:42:05.304Z,31.29
2019-04-01T07:43:05.294Z,31.88
2019-04-01T07:44:05.291Z,30.96
2019-04-01T07:45:05.268Z,29.85
2019-04-01T07:46:08.111Z,29.47
2019-04-01T07:47:05.266Z,30.41
2019-04-01T07:48:05.264Z,31.12
2019-04-01T07:49:05.229Z,31.00
2019-04-01T07:50:05.212Z,30.87
2019-04-01T07:51:07.033Z,31.56
2019-04-01T07:52:05.190Z,30.85
2019-04-01T07:53:05.182Z,30.14
2019-04-01T07:54:05.182Z,31.01
2019-04-01T07:55:05.172Z,29.19
2019-04-01T07:56:05.187Z,28.67
2019-04-01T07:57:05.144Z,27.08
2019-04-01T07:58:05.147Z,27.29
2019-04-01T07:59:05.142Z,27.29
2019-04-01T08:00:05.112Z,28.48
2019-04-01T08:01:05.099Z,26.60
2019-04-01T08:02:05.109Z,27.21
2019-04-01T08:03:05.116Z,28.10
2019-04-01T08:04:05.078Z,26.90
2019-04-01T08:05:05.052Z,27.29
2019-04-01T08:06:05.045Z,26.37
2019-04-01T08:07:05.046Z,27.69
2019-04-01T08:08:05.023Z,27.36
2019-04-01T08:09:05.024Z,26.76
2019-04-01T08:10:05.075Z,26.08
2019-04-01T08:11:05.002Z,26.57
2019-04-01T08:12:04.996Z,27.04
2019-04-01T08:13:04.969Z,25.35
2019-04-01T08:14:04.964Z,25.87
2019-04-01T08:15:04.989Z,25.68
2019-04-01T08:16:04.968Z,25.87
2019-04-01T08:17:04.953Z,27.69
2019-04-01T08:18:04.924Z,25.77
2019-04-01T08:19:04.909Z,26.65
2019-04-01T08:20:04.902Z,25.95
2019-04-01T08:21:04.887Z,26.35
2019-04-01T08:22:04.891Z,25.58
2019-04-01T08:23:04.896Z,26.21
2019-04-01T08:24:04.853Z,26.62
2019-04-01T08:25:04.914Z,27.05
2019-04-01T08:26:04.831Z,27.76
2019-04-01T08:27:07.331Z,27.19
2019-04-01T08:28:04.827Z,28.50
2019-04-01T08:29:04.819Z,27.61
2019-04-01T08:30:04.804Z,28.32
2019-04-01T08:31:04.797Z,29.03
2019-04-01T08:32:04.785Z,27.73
2019-04-01T08:33:04.759Z,28.25
2019-04-01T08:34:04.749Z,29.03
2019-04-01T08:35:04.733Z,27.51
2019-04-01T08:36:04.738Z,27.50
2019-04-01T08:37:04.747Z,28.90
2019-04-01T08:38:04.719Z,26.97
2019-04-01T08:39:04.749Z,27.49
2019-04-01T08:40:04.683Z,28.15
2019-04-01T08:41:04.675Z,29.89
2019-04-01T08:42:04.681Z,30.22
2019-04-01T08:43:04.645Z,31.46
2019-04-01T08:44:04.685Z,31.49
2019-04-01T08:45:04.626Z,33.44
2019-04-01T08:46:04.614Z,33.04
2019-04-01T08:47:04.621Z,32.54
2019-04-01T08:48:04.594Z,33.64
2019-04-01T08:49:07.789Z,31.96
2019-04-01T08:50:04.570Z,30.93
2019-04-01T08:51:04.567Z,31.74
2019-04-01T08:52:04.584Z,32.64
2019-04-01T08:53:04.538Z,32.24
2019-04-01T08:54:04.545Z,32.06
2019-04-01T08:55:04.511Z,32.00
2019-04-01T08:56:04.504Z,31.83
2019-04-01T08:57:04.528Z,32.96
2019-04-01T08:58:04.484Z,34.38
2019-04-01T08:59:04.469Z,33.74
2019-04-01T09:00:04.464Z,33.12
2019-04-01T09:01:04.448Z,31.28
2019-04-01T09:02:17.002Z,31.48
2019-04-01T09:03:05.426Z,32.91
2019-04-01T09:04:04.415Z,32.53
2019-04-01T09:05:04.405Z,32.96
2019-04-01T09:06:04.546Z,33.91
2019-04-01T09:07:04.398Z,34.30
2019-04-01T09:08:04.401Z,34.08
2019-04-01T09:09:04.375Z,33.75
2019-04-01T09:10:04.378Z,33.75
2019-04-01T09:11:04.338Z,33.47
2019-04-01T09:12:04.340Z,33.33
2019-04-01T09:13:04.316Z,31.19
2019-04-01T09:14:04.314Z,32.17
2019-04-01T09:15:04.302Z,29.80
2019-04-01T09:16:04.294Z,29.91
2019-04-01T09:17:04.302Z,30.70
2019-04-01T09:18:04.277Z,30.28
2019-04-01T09:19:04.254Z,28.68
2019-04-01T09:20:04.251Z,31.59
2019-04-01T09:21:04.230Z,29.17
2019-04-01T09:22:04.234Z,29.89
2019-04-01T09:23:04.208Z,30.91
2019-04-01T09:24:04.217Z,29.00
2019-04-01T09:25:04.191Z,29.19
2019-04-01T09:26:04.180Z,29.79
2019-04-01T09:27:04.183Z,30.22
2019-04-01T09:28:04.152Z,30.05
2019-04-01T09:29:04.142Z,31.37
2019-04-01T09:30:04.156Z,31.34
2019-04-01T09:31:04.117Z,30.91
2019-04-01T09:32:04.132Z,30.40
2019-04-01T09:33:04.095Z,29.80
2019-04-01T09:34:04.086Z,29.40
2019-04-01T09:35:04.077Z,30.28
2019-04-01T09:36:04.088Z,31.40
2019-04-01T09:37:04.065Z,30.80
2019-04-01T09:38:04.082Z,31.15
2019-04-01T09:39:04.057Z,31.74
2019-04-01T09:40:04.023Z,33.37
2019-04-01T09:41:04.012Z,33.77
2019-04-01T09:42:04.010Z,34.80
2019-04-01T09:43:04.019Z,34.39
2019-04-01T09:44:03.981Z,34.80
2019-04-01T09:45:03.980Z,33.99
2019-04-01T09:46:03.977Z,33.67
2019-04-01T09:47:03.950Z,34.38
2019-04-01T09:48:03.954Z,32.47
2019-04-01T09:49:03.923Z,33.09
2019-04-01T09:50:03.925Z,32.79
2019-04-01T09:51:03.938Z,33.38
2019-04-01T09:52:04.122Z,32.87
2019-04-01T09:53:03.904Z,34.09
2019-04-01T09:54:03.873Z,32.47
2019-04-01T09:55:06.111Z,31.22
2019-04-01T09:56:03.852Z,32.62
2019-04-01T09:57:16.740Z,31.01
2019-04-01T09:58:04.868Z,31.93
2019-04-01T09:59:03.820Z,32.84
2019-04-01T10:00:03.809Z,31.63
2019-04-01T10:01:03.793Z,32.34
2019-04-01T10:02:03.783Z,31.73
2019-04-01T10:03:03.787Z,32.15
2019-04-01T10:04:03.785Z,32.15
2019-04-01T10:05:03.751Z,32.96
2019-04-01T10:06:03.741Z,33.96
2019-04-01T10:07:03.726Z,34.47
2019-04-01T10:08:03.733Z,33.33
2019-04-01T10:09:03.710Z,32.91
2019-04-01T10:10:03.705Z,31.18
2019-04-01T10:11:03.709Z,31.55
2019-04-01T10:12:03.675Z,30.83
2019-04-01T10:13:03.709Z,28.69
2019-04-01T10:14:03.652Z,30.00
2019-04-01T10:15:03.642Z,29.60
2019-04-01T10:16:03.630Z,28.59
2019-04-01T10:17:03.636Z,29.13
2019-04-01T10:18:03.628Z,30.63
2019-04-01T10:19:03.602Z,31.52
2019-04-01T10:20:03.589Z,28.67
2019-04-01T10:21:03.583Z,29.98
2019-04-01T10:22:03.562Z,30.98
2019-04-01T10:23:03.563Z,26.86
2019-04-01T10:24:03.544Z,27.38
2019-04-01T10:25:03.566Z,29.13
2019-04-01T10:26:03.519Z,31.03
2019-04-01T10:27:03.511Z,29.60
2019-04-01T10:28:03.508Z,29.00
2019-04-01T10:29:03.485Z,28.28
2019-04-01T10:30:03.478Z,29.40
2019-04-01T10:31:03.490Z,29.61
2019-04-01T10:32:03.469Z,30.34
2019-04-01T10:33:03.470Z,31.12
2019-04-01T10:34:03.438Z,30.07
2019-04-01T10:35:03.428Z,28.22
2019-04-01T10:36:03.418Z,28.31
2019-04-01T10:37:03.408Z,27.10
2019-04-01T10:38:03.446Z,28.02
2019-04-01T10:39:03.410Z,28.23
2019-04-01T10:40:03.371Z,28.54
2019-04-01T10:41:03.357Z,28.92
2019-04-01T10:42:03.345Z,26.82
2019-04-01T10:43:03.336Z,27.33
2019-04-01T10:44:04.978Z,27.44
2019-04-01T10:45:03.324Z,29.64
2019-04-01T10:46:03.311Z,28.61
2019-04-01T10:47:03.336Z,27.81
2019-04-01T10:48:03.323Z,28.40
2019-04-01T10:49:03.334Z,29.10
2019-04-01T10:50:03.354Z,27.39
2019-04-01T10:51:03.436Z,28.89
2019-04-01T10:52:03.242Z,27.58
2019-04-01T10:53:03.237Z,28.17
2019-04-01T10:54:03.324Z,27.88
2019-04-01T10:55:03.262Z,27.59
2019-04-01T10:56:03.287Z,28.28
2019-04-01T10:57:03.264Z,28.31
2019-04-01T10:58:03.179Z,29.11
2019-04-01T10:59:03.197Z,26.99
2019-04-01T11:00:03.195Z,28.12
2019-04-01T11:01:03.169Z,27.34
2019-04-01T11:02:03.131Z,28.75
2019-04-01T11:03:05.995Z,29.36
2019-04-01T11:04:03.221Z,29.78
2019-04-01T11:05:03.117Z,28.68
2019-04-01T11:06:03.094Z,29.99
2019-04-01T11:07:03.114Z,28.98
2019-04-01T11:08:03.225Z,29.30
2019-04-01T11:09:03.090Z,30.44
2019-04-01T11:10:03.048Z,29.92
2019-04-01T11:11:03.031Z,30.21
2019-04-01T11:12:03.027Z,30.54
2019-04-01T11:13:03.018Z,30.98
2019-04-01T11:14:03.015Z,31.88
2019-04-01T11:15:02.993Z,33.88
2019-04-01T11:16:02.983Z,32.90
2019-04-01T11:17:04.481Z,30.44
2019-04-01T11:18:02.961Z,27.42
2019-04-01T11:19:02.968Z,28.60
2019-04-01T11:20:02.934Z,26.28
2019-04-01T11:21:02.931Z,25.16
2019-04-01T11:22:03.818Z,25.56
2019-04-01T11:23:04.818Z,26.85
2019-04-01T11:24:02.915Z,26.97
2019-04-01T11:25:02.901Z,27.19
2019-04-01T11:26:02.887Z,26.79
2019-04-01T11:27:02.866Z,27.15
2019-04-01T11:28:02.870Z,25.90
2019-04-01T11:29:02.857Z,25.74
2019-04-01T11:30:02.850Z,24.22
2019-04-01T11:31:02.854Z,23.22
2019-04-01T11:32:02.823Z,23.04
2019-04-01T11:33:02.843Z,24.04
2019-04-01T11:34:02.864Z,24.66
2019-04-01T11:35:02.789Z,24.37
2019-04-01T11:36:02.759Z,24.44
2019-04-01T11:37:02.798Z,23.42
2019-04-01T11:38:02.759Z,21.98
2019-04-01T11:39:02.757Z,22.41
2019-04-01T11:40:02.759Z,21.92
2019-04-01T11:41:02.705Z,21.41
2019-04-01T11:42:02.719Z,22.50
2019-04-01T11:43:04.977Z,22.28
2019-04-01T11:44:02.737Z,21.58
2019-04-01T11:45:05.606Z,21.20
2019-04-01T11:46:02.659Z,21.42
2019-04-01T11:47:02.704Z,22.31
2019-04-01T11:48:02.636Z,21.01
2019-04-01T11:49:02.661Z,21.72
2019-04-01T11:50:02.677Z,22.36
2019-04-01T11:51:02.608Z,21.98
2019-04-01T11:52:02.644Z,24.19
2019-04-01T11:53:02.580Z,24.78
2019-04-01T11:54:02.584Z,23.94
2019-04-01T11:55:06.143Z,23.02
2019-04-01T11:56:02.543Z,21.30
2019-04-01T11:57:02.584Z,21.81
2019-04-01T11:58:02.520Z,22.64
2019-04-01T11:59:02.532Z,22.76
2019-04-01T12:00:02.522Z,22.95
2019-04-01T12:01:02.494Z,22.05
2019-04-01T12:02:02.478Z,21.81
2019-04-01T12:03:02.468Z,21.89
2019-04-01T12:04:02.471Z,21.78
2019-04-01T12:05:02.461Z,21.58
2019-04-01T12:06:02.450Z,21.66
2019-04-01T12:07:02.426Z,21.14
2019-04-01T12:08:02.443Z,20.76
2019-04-01T12:09:02.434Z,20.76
2019-04-01T12:10:02.401Z,19.66
2019-04-01T12:11:02.384Z,19.89
2019-04-01T12:12:03.240Z,21.39
2019-04-01T12:13:02.374Z,21.28
2019-04-01T12:14:05.147Z,19.36
2019-04-01T12:15:02.344Z,21.03
2019-04-01T12:16:02.340Z,19.94
2019-04-01T12:17:02.330Z,17.87
2019-04-01T12:18:02.310Z,19.96
2019-04-01T12:19:02.314Z,17.19
2019-04-01T12:20:02.286Z,17.89
2019-04-01T12:21:02.286Z,18.38
2019-04-01T12:22:02.273Z,19.10
2019-04-01T12:23:02.256Z,19.23
2019-04-01T12:24:02.279Z,19.64
2019-04-01T12:25:02.241Z,19.73
2019-04-01T12:26:14.264Z,19.44
2019-04-01T12:27:03.221Z,20.10
2019-04-01T12:28:02.208Z,18.49
2019-04-01T12:29:02.213Z,20.00
2019-04-01T12:30:02.197Z,19.38
2019-04-01T12:31:02.176Z,20.12
2019-04-01T12:32:02.180Z,20.20
2019-04-01T12:33:02.158Z,20.29
2019-04-01T12:34:02.172Z,20.18
2019-04-01T12:35:02.135Z,20.07
2019-04-01T12:36:02.122Z,19.16
2019-04-01T12:37:02.113Z,18.95
2019-04-01T12:38:02.109Z,18.36
2019-04-01T12:39:02.109Z,19.14
2019-04-01T12:40:02.089Z,18.84
2019-04-01T12:41:02.073Z,18.15
2019-04-01T12:42:02.074Z,18.95
2019-04-01T12:43:02.057Z,18.65
2019-04-01T12:44:02.060Z,19.75
2019-04-01T12:45:02.033Z,17.86
2019-04-01T12:46:02.028Z,18.68
2019-04-01T12:47:02.016Z,19.29
2019-04-01T12:48:01.999Z,19.38
2019-04-01T12:49:02.002Z,19.87
2019-04-01T12:50:01.984Z,19.37
2019-04-01T12:51:01.973Z,19.68
2019-04-01T12:52:01.966Z,19.09